createdAt,value
2022-08-14T00:01:55.297Z,55.22
2022-08-14T00:04:35.971Z,54.32
2022-08-14T00:07:11.202Z,55.23
2022-08-14T00:09:56.298Z,55.17
2022-08-14T00:12:48.131Z,54.69
2022-08-14T00:15:19.386Z,55.69
2022-08-14T00:17:53.458Z,53.51
2022-08-14T00:20:30.887Z,52.75
2022-08-14T00:23:12.433Z,52.06
2022-08-14T00:25:58.782Z,52.05
2022-08-14T00:28:35.261Z,51.97
2022-08-14T00:31:04.904Z,51.66
2022-08-14T00:33:50.451Z,52.42
2022-08-14T00:36:37.695Z,52.44
2022-08-14T00:39:15.077Z,51.87
2022-08-14T00:41:47.136Z,51.63
2022-08-14T00:44:26.743Z,51.49
2022-08-14T00:47:00.867Z,51.26
2022-08-14T00:49:30.045Z,51.26
2022-08-14T00:52:00.906Z,51.03
2022-08-14T00:54:28.845Z,50.82
2022-08-14T00:56:56.994Z,50.91
2022-08-14T00:59:26.382Z,50.98
2022-08-14T01:01:58.630Z,51.20
2022-08-14T01:04:37.690Z,51.13
2022-08-14T01:07:20.769Z,50.98
2022-08-14T01:09:50.852Z,51.39
2022-08-14T01:12:40.480Z,51.16
2022-08-14T01:15:14.746Z,50.39
2022-08-14T01:18:00.596Z,50.20
2022-08-14T01:20:46.427Z,50.60
2022-08-14T01:23:19.258Z,50.64
2022-08-14T01:25:51.792Z,50.78
2022-08-14T01:28:47.119Z,50.81
2022-08-14T01:31:12.431Z,50.71
2022-08-14T01:33:59.974Z,50.54
2022-08-14T01:36:36.621Z,50.56
2022-08-14T01:39:12.872Z,50.71
2022-08-14T01:41:43.599Z,50.74
2022-08-14T01:44:32.089Z,50.89
2022-08-14T01:47:09.630Z,51.10
2022-08-14T01:49:45.768Z,51.35
2022-08-14T01:52:33.653Z,51.47
2022-08-14T01:55:04.545Z,51.66
2022-08-14T01:58:01.025Z,51.56
2022-08-14T02:00:27.565Z,51.39
2022-08-14T02:02:57.283Z,51.55
2022-08-14T02:05:29.408Z,51.55
2022-08-14T02:08:09.506Z,51.98
2022-08-14T02:10:47.097Z,51.72
2022-08-14T02:13:18.984Z,51.82
2022-08-14T02:15:48.823Z,51.88
2022-08-14T02:18:18.933Z,51.86
2022-08-14T02:20:47.755Z,52.06
2022-08-14T02:23:16.457Z,52.52
2022-08-14T02:25:54.527Z,52.64
2022-08-14T02:28:57.354Z,52.70
2022-08-14T02:31:15.001Z,52.81
2022-08-14T02:33:43.857Z,53.38
2022-08-14T02:37:02.506Z,53.07
2022-08-14T02:39:00.779Z,53.27
2022-08-14T02:41:31.831Z,53.97
2022-08-14T02:44:06.212Z,53.43
2022-08-14T02:46:36.206Z,53.40
2022-08-14T02:49:09.107Z,53.71
2022-08-14T02:51:39.716Z,53.80
2022-08-14T02:54:08.961Z,53.95
2022-08-14T02:57:16.442Z,54.15
2022-08-14T02:59:29.604Z,54.27
2022-08-14T03:02:03.362Z,54.10
2022-08-14T03:04:33.055Z,54.34
2022-08-14T03:07:07.575Z,54.32
2022-08-14T03:10:24.725Z,54.32
2022-08-14T03:12:30.699Z,54.12
2022-08-14T03:15:03.138Z,54.17
2022-08-14T03:17:41.318Z,54.08
2022-08-14T03:20:22.554Z,54.50
2022-08-14T03:22:51.469Z,54.46
2022-08-14T03:25:21.727Z,54.46
2022-08-14T03:27:58.828Z,54.55
2022-08-14T03:30:38.905Z,54.62
2022-08-14T03:33:10.970Z,54.50
2022-08-14T03:36:05.100Z,54.69
2022-08-14T03:39:14.627Z,54.92
2022-08-14T03:41:19.752Z,55.04
2022-08-14T03:43:57.724Z,54.87
2022-08-14T03:46:52.124Z,55.11
2022-08-14T03:49:24.473Z,54.77
2022-08-14T03:51:57.771Z,55.18
2022-08-14T03:54:26.625Z,54.98
2022-08-14T03:56:55.027Z,55.30
2022-08-14T03:59:24.369Z,55.11
2022-08-14T04:02:01.491Z,56.18
2022-08-14T04:04:30.600Z,56.08
2022-08-14T04:06:59.986Z,56.32
2022-08-14T04:09:28.006Z,56.24
2022-08-14T04:11:58.008Z,55.39
2022-08-14T04:14:28.930Z,55.24
2022-08-14T04:16:57.214Z,55.85
2022-08-14T04:19:28.101Z,55.93
2022-08-14T04:22:02.944Z,55.79
2022-08-14T04:24:37.767Z,55.80
2022-08-14T04:27:07.323Z,56.70
2022-08-14T04:29:39.457Z,55.96
2022-08-14T04:33:00.915Z,55.45
2022-08-14T04:34:56.944Z,55.67
2022-08-14T04:37:43.429Z,56.22
2022-08-14T04:40:31.734Z,57.57
2022-08-14T04:43:17.653Z,57.41
2022-08-14T04:45:51.457Z,56.95
2022-08-14T04:48:39.668Z,57.23
2022-08-14T04:51:10.920Z,57.60
2022-08-14T04:53:43.455Z,58.18
2022-08-14T04:56:30.696Z,58.07
2022-08-14T04:59:10.170Z,57.82
2022-08-14T05:01:44.893Z,57.56
2022-08-14T05:04:19.631Z,57.30
2022-08-14T05:06:49.403Z,57.73
2022-08-14T05:09:17.656Z,57.60
2022-08-14T05:11:47.344Z,57.85
2022-08-14T05:14:33.143Z,57.74
2022-08-14T05:17:04.361Z,57.75
2022-08-14T05:19:44.391Z,57.71
2022-08-14T05:22:22.852Z,57.89
2022-08-14T05:24:55.099Z,56.82
2022-08-14T05:27:24.059Z,56.81
2022-08-14T05:29:53.219Z,56.59
2022-08-14T05:32:22.875Z,56.53
2022-08-14T05:34:50.791Z,56.12
2022-08-14T05:37:19.517Z,55.31
2022-08-14T05:39:47.736Z,54.46
2022-08-14T05:42:22.039Z,53.73
2022-08-14T05:44:56.078Z,52.51
2022-08-14T05:47:29.105Z,52.27
2022-08-14T05:50:02.262Z,51.79
2022-08-14T05:52:38.927Z,50.76
2022-08-14T05:55:11.257Z,47.19
2022-08-14T05:57:49.999Z,45.77
2022-08-14T06:00:28.350Z,45.05
2022-08-14T06:03:00.388Z,44.52
2022-08-14T06:05:29.514Z,45.11
2022-08-14T06:07:58.447Z,44.89
2022-08-14T06:10:27.986Z,44.28
2022-08-14T06:13:00.146Z,44.10
2022-08-14T06:15:30.618Z,42.11
2022-08-14T06:18:00.785Z,39.90
2022-08-14T06:20:31.308Z,38.54
2022-08-14T06:23:02.819Z,37.11
2022-08-14T06:25:31.830Z,36.78
2022-08-14T06:28:00.846Z,35.80
2022-08-14T06:30:46.416Z,35.45
2022-08-14T06:33:18.762Z,35.10
2022-08-14T06:35:48.430Z,34.51
2022-08-14T06:38:18.868Z,34.15
2022-08-14T06:40:47.776Z,33.69
2022-08-14T06:43:16.882Z,33.18
2022-08-14T06:45:50.391Z,34.09
2022-08-14T06:48:25.412Z,34.06
2022-08-14T06:50:55.182Z,33.63
2022-08-14T06:53:27.727Z,32.67
2022-08-14T06:56:00.622Z,31.72
2022-08-14T06:58:31.503Z,30.84
2022-08-14T07:01:23.049Z,30.31
2022-08-14T07:04:18.845Z,30.18
2022-08-14T07:06:51.620Z,29.59
2022-08-14T07:09:24.318Z,28.80
2022-08-14T07:11:52.601Z,28.32
2022-08-14T07:14:20.629Z,28.83
2022-08-14T07:16:48.796Z,28.19
2022-08-14T07:19:20.815Z,28.08
2022-08-14T07:21:50.315Z,29.17
2022-08-14T07:24:26.138Z,29.04
2022-08-14T07:26:54.625Z,28.10
2022-08-14T07:29:26.220Z,28.55
2022-08-14T07:31:56.842Z,28.15
2022-08-14T07:34:26.343Z,27.32
2022-08-14T07:37:05.721Z,26.65
2022-08-14T07:39:34.513Z,26.72
2022-08-14T07:42:03.349Z,27.17
2022-08-14T07:44:35.905Z,26.46
2022-08-14T07:47:15.901Z,26.34
2022-08-14T07:49:59.321Z,26.34
2022-08-14T07:52:30.705Z,27.64
2022-08-14T07:55:02.189Z,29.21
2022-08-14T07:57:30.135Z,28.42
2022-08-14T07:59:57.869Z,28.61
2022-08-14T08:02:32.472Z,29.58
2022-08-14T08:05:02.611Z,30.34
2022-08-14T08:07:32.044Z,29.47
2022-08-14T08:10:31.041Z,28.11
2022-08-14T08:13:13.849Z,26.78
2022-08-14T08:15:44.141Z,26.72
2022-08-14T08:18:20.431Z,26.46
2022-08-14T08:21:00.167Z,26.26
2022-08-14T08:23:40.431Z,25.36
2022-08-14T08:26:18.719Z,25.30
2022-08-14T08:28:57.266Z,24.79
2022-08-14T08:31:34.892Z,25.33
2022-08-14T08:34:06.450Z,25.47
2022-08-14T08:36:42.721Z,25.35
2022-08-14T08:39:22.591Z,25.91
2022-08-14T08:41:53.828Z,25.04
2022-08-14T08:44:31.967Z,25.97
2022-08-14T08:47:05.913Z,25.70
2022-08-14T08:49:48.872Z,24.45
2022-08-14T08:52:31.589Z,24.53
2022-08-14T08:55:00.716Z,23.30
2022-08-14T08:57:35.830Z,23.53
2022-08-14T09:00:24.157Z,23.64
2022-08-14T09:02:57.933Z,23.11
2022-08-14T09:05:26.741Z,25.66
2022-08-14T09:07:56.843Z,25.67
2022-08-14T09:10:27.224Z,24.71
2022-08-14T09:12:56.270Z,23.38
2022-08-14T09:15:24.413Z,23.46
2022-08-14T09:17:54.618Z,24.25
2022-08-14T09:20:26.442Z,23.50
2022-08-14T09:23:01.481Z,22.90
2022-08-14T09:25:59.150Z,23.77
2022-08-14T09:28:19.978Z,22.16
2022-08-14T09:30:55.526Z,23.16
2022-08-14T09:33:57.429Z,22.33
2022-08-14T09:37:00.103Z,22.88
2022-08-14T09:39:43.855Z,22.83
2022-08-14T09:42:45.225Z,22.80
2022-08-14T09:45:20.991Z,22.34
2022-08-14T09:47:51.874Z,21.96
2022-08-14T09:50:26.893Z,23.52
2022-08-14T09:52:59.518Z,22.55
2022-08-14T09:55:41.297Z,21.51
2022-08-14T09:58:19.986Z,21.95
2022-08-14T10:00:53.975Z,21.15
2022-08-14T10:03:33.133Z,21.21
2022-08-14T10:06:13.663Z,21.13
2022-08-14T10:08:44.582Z,21.09
2022-08-14T10:11:23.382Z,21.20
2022-08-14T10:13:55.749Z,20.67
2022-08-14T10:16:32.955Z,20.86
2022-08-14T10:19:09.630Z,19.85
2022-08-14T10:21:58.878Z,22.02
2022-08-14T10:24:37.035Z,21.29
2022-08-14T10:27:18.215Z,21.00
2022-08-14T10:29:50.238Z,21.58
2022-08-14T10:32:28.069Z,21.45
2022-08-14T10:35:13.286Z,21.99
2022-08-14T10:37:46.451Z,22.69
2022-08-14T10:40:37.982Z,23.73
2022-08-14T10:43:17.958Z,23.18
2022-08-14T10:46:03.767Z,23.58
2022-08-14T10:48:45.761Z,25.04
2022-08-14T10:51:24.999Z,26.84
2022-08-14T10:53:56.275Z,27.66
2022-08-14T10:56:35.001Z,28.28
2022-08-14T10:59:04.827Z,28.18
2022-08-14T11:01:38.491Z,27.16
2022-08-14T11:04:25.879Z,24.97
2022-08-14T11:06:56.265Z,23.97
2022-08-14T11:09:25.887Z,22.91
2022-08-14T11:12:39.998Z,22.92
2022-08-14T11:14:58.864Z,23.67
2022-08-14T11:17:32.212Z,22.83
2022-08-14T11:20:02.594Z,24.06
2022-08-14T11:22:55.811Z,23.39
2022-08-14T11:25:23.643Z,23.98
2022-08-14T11:27:55.717Z,23.32
2022-08-14T11:30:51.026Z,23.54
2022-08-14T11:33:16.396Z,24.37
2022-08-14T11:35:49.577Z,25.44
2022-08-14T11:38:19.941Z,24.49
2022-08-14T11:40:49.026Z,25.31
2022-08-14T11:43:17.965Z,24.59
2022-08-14T11:45:52.207Z,24.57
2022-08-14T11:49:03.374Z,26.85
2022-08-14T11:51:14.653Z,26.12
2022-08-14T11:53:50.820Z,24.76
2022-08-14T11:56:25.263Z,24.94
2022-08-14T11:58:55.439Z,25.39
2022-08-14T12:01:31.177Z,25.41
2022-08-14T12:04:32.686Z,24.72
2022-08-14T12:06:58.353Z,25.68
2022-08-14T12:09:31.852Z,25.03
2022-08-14T12:12:00.613Z,26.89
2022-08-14T12:14:35.370Z,25.27
2022-08-14T12:17:13.212Z,26.28
2022-08-14T12:19:50.891Z,26.10
2022-08-14T12:22:29.659Z,26.50
2022-08-14T12:24:58.698Z,25.57
2022-08-14T12:27:41.981Z,24.84
2022-08-14T12:30:34.328Z,25.43
2022-08-14T12:33:08.777Z,27.20
2022-08-14T12:35:45.383Z,26.68
2022-08-14T12:38:19.356Z,26.63
2022-08-14T12:40:48.681Z,27.04
2022-08-14T12:43:18.150Z,25.93
2022-08-14T12:45:50.292Z,26.73
2022-08-14T12:48:21.337Z,26.59
2022-08-14T12:50:59.332Z,27.58
2022-08-14T12:53:38.744Z,28.55
2022-08-14T12:56:22.239Z,27.59
2022-08-14T12:58:57.553Z,29.37
2022-08-14T13:01:27.338Z,29.84
2022-08-14T13:04:07.253Z,29.24
2022-08-14T13:06:36.091Z,29.34
2022-08-14T13:09:11.261Z,29.52
2022-08-14T13:11:44.857Z,30.57
2022-08-14T13:14:17.325Z,30.93
2022-08-14T13:16:50.475Z,31.13
2022-08-14T13:19:21.205Z,31.69
2022-08-14T13:21:58.689Z,30.78
2022-08-14T13:24:34.672Z,31.59
2022-08-14T13:27:04.889Z,31.39
2022-08-14T13:29:40.463Z,31.31
2022-08-14T13:32:10.036Z,30.91
2022-08-14T13:34:43.565Z,30.51
2022-08-14T13:37:15.331Z,30.68
2022-08-14T13:39:56.970Z,30.35
2022-08-14T13:42:30.186Z,29.93
2022-08-14T13:45:01.649Z,31.10
2022-08-14T13:47:32.396Z,31.09
2022-08-14T13:50:04.575Z,31.11
2022-08-14T13:52:51.588Z,30.99
2022-08-14T13:55:23.966Z,30.10
2022-08-14T13:58:03.617Z,30.74
2022-08-14T14:00:35.555Z,31.68
2022-08-14T14:03:08.743Z,30.83
2022-08-14T14:05:53.022Z,31.61
2022-08-14T14:08:43.752Z,31.38
2022-08-14T14:11:11.305Z,31.96
2022-08-14T14:13:44.673Z,32.43
2022-08-14T14:16:15.074Z,32.37
2022-08-14T14:18:55.765Z,32.07
2022-08-14T14:21:28.778Z,31.61
2022-08-14T14:23:57.978Z,31.25
2022-08-14T14:26:27.873Z,31.25
2022-08-14T14:28:57.731Z,31.08
2022-08-14T14:31:30.018Z,30.23
2022-08-14T14:34:00.567Z,30.15
2022-08-14T14:36:32.173Z,30.39
2022-08-14T14:39:05.114Z,30.74
2022-08-14T14:41:38.087Z,30.41
2022-08-14T14:44:09.054Z,30.74
2022-08-14T14:46:41.654Z,30.82
2022-08-14T14:49:14.443Z,30.63
2022-08-14T14:51:46.811Z,31.37
2022-08-14T14:54:32.174Z,31.95
2022-08-14T14:57:09.143Z,31.57
2022-08-14T14:59:38.288Z,31.64
2022-08-14T15:02:09.271Z,31.48
2022-08-14T15:04:43.755Z,32.12
2022-08-14T15:07:16.352Z,32.12
2022-08-14T15:09:44.751Z,32.05
2022-08-14T15:12:28.075Z,31.42
2022-08-14T15:15:08.852Z,31.64
2022-08-14T15:17:41.559Z,31.72
2022-08-14T15:20:17.233Z,31.43
2022-08-14T15:23:00.960Z,31.60
2022-08-14T15:25:36.412Z,31.44
2022-08-14T15:28:05.555Z,31.83
2022-08-14T15:30:33.302Z,31.76
2022-08-14T15:33:01.308Z,32.21
2022-08-14T15:35:34.210Z,31.88
2022-08-14T15:38:07.976Z,32.38
2022-08-14T15:40:37.617Z,32.46
2022-08-14T15:43:10.821Z,32.58
2022-08-14T15:45:41.569Z,31.53
2022-08-14T15:48:14.010Z,32.10
2022-08-14T15:50:50.904Z,31.82
2022-08-14T15:53:22.446Z,31.98
2022-08-14T15:55:50.351Z,31.83
2022-08-14T15:58:21.150Z,32.18
2022-08-14T16:01:09.821Z,31.82
2022-08-14T16:03:40.982Z,32.37
2022-08-14T16:06:15.694Z,31.77
2022-08-14T16:08:50.238Z,32.17
2022-08-14T16:11:27.351Z,32.42
2022-08-14T16:14:00.907Z,32.15
2022-08-14T16:16:48.088Z,32.26
2022-08-14T16:19:19.209Z,32.22
2022-08-14T16:22:01.426Z,32.69
2022-08-14T16:25:00.092Z,32.20
2022-08-14T16:27:38.903Z,32.36
2022-08-14T16:30:12.190Z,32.97
2022-08-14T16:32:54.611Z,32.79
2022-08-14T16:35:26.308Z,32.49
2022-08-14T16:37:55.641Z,33.15
2022-08-14T16:43:04.167Z,33.04
2022-08-14T16:45:43.794Z,33.28
2022-08-14T16:48:57.106Z,33.55
2022-08-14T16:51:01.632Z,33.54
2022-08-14T16:53:36.545Z,33.76
2022-08-14T16:56:23.184Z,34.15
2022-08-14T16:58:53.776Z,34.36
2022-08-14T17:01:25.341Z,34.47
2022-08-14T17:03:56.599Z,34.39
2022-08-14T17:06:42.930Z,34.66
2022-08-14T17:09:27.776Z,34.68
2022-08-14T17:11:58.438Z,34.95
2022-08-14T17:14:28.404Z,34.92
2022-08-14T17:16:57.462Z,35.01
2022-08-14T17:19:25.243Z,35.16
2022-08-14T17:21:53.498Z,35.07
2022-08-14T17:24:58.028Z,35.30
2022-08-14T17:27:10.893Z,35.45
2022-08-14T17:29:56.587Z,35.36
2022-08-14T17:32:29.891Z,35.49
2022-08-14T17:35:16.672Z,35.50
2022-08-14T17:37:46.352Z,35.86
2022-08-14T17:40:16.462Z,35.84
2022-08-14T17:45:46.995Z,36.25
2022-08-14T17:49:10.399Z,36.53
2022-08-14T17:51:23.304Z,36.81
2022-08-14T17:53:52.773Z,36.83
2022-08-14T17:56:21.534Z,37.10
2022-08-14T17:58:50.859Z,37.17
2022-08-14T18:01:23.675Z,37.48
2022-08-14T18:03:54.056Z,37.44
2022-08-14T18:06:40.234Z,36.95
2022-08-14T18:09:24.982Z,36.89
2022-08-14T18:11:54.480Z,37.53
2022-08-14T18:14:32.005Z,36.77
2022-08-14T18:17:02.203Z,36.79
2022-08-14T18:19:31.597Z,36.92
2022-08-14T18:22:05.668Z,36.30
2022-08-14T18:24:51.782Z,36.30
2022-08-14T18:27:23.145Z,36.23
2022-08-14T18:29:54.793Z,35.91
2022-08-14T18:32:47.560Z,36.02
2022-08-14T18:35:24.359Z,35.62
2022-08-14T18:38:25.576Z,35.81
2022-08-14T18:40:54.884Z,35.75
2022-08-14T18:43:41.961Z,35.64
2022-08-14T18:46:59.912Z,35.83
2022-08-14T18:49:14.739Z,35.92
2022-08-14T18:51:45.595Z,36.10
2022-08-14T18:54:27.594Z,36.11
2022-08-14T18:57:01.065Z,36.11
2022-08-14T18:59:29.711Z,36.29
2022-08-14T19:02:22.357Z,36.40
2022-08-14T19:05:02.427Z,36.70
2022-08-14T19:07:33.961Z,36.52
2022-08-14T19:10:02.530Z,36.57
2022-08-14T19:12:58.450Z,36.58
2022-08-14T19:15:31.342Z,36.78
2022-08-14T19:18:13.813Z,36.73
2022-08-14T19:20:49.044Z,36.59
2022-08-14T19:23:21.782Z,36.79
2022-08-14T19:25:59.726Z,36.90
2022-08-14T19:28:31.647Z,36.76
2022-08-14T19:31:21.217Z,36.83
2022-08-14T19:33:52.722Z,37.22
2022-08-14T19:36:29.020Z,37.04
2022-08-14T19:39:04.045Z,37.17
2022-08-14T19:41:33.796Z,37.02
2022-08-14T19:44:12.311Z,37.44
2022-08-14T19:47:01.405Z,37.51
2022-08-14T19:50:08.501Z,37.60
2022-08-14T19:52:22.147Z,37.97
2022-08-14T19:54:51.409Z,38.08
2022-08-14T19:57:20.417Z,38.47
2022-08-14T19:59:57.688Z,38.48
2022-08-14T20:02:30.010Z,38.60
2022-08-14T20:04:59.039Z,38.67
2022-08-14T20:07:59.289Z,38.78
2022-08-14T20:11:07.901Z,38.98
2022-08-14T20:13:15.029Z,39.14
2022-08-14T20:15:51.447Z,39.33
2022-08-14T20:18:49.855Z,39.77
2022-08-14T20:21:16.718Z,39.59
2022-08-14T20:23:47.698Z,39.93
2022-08-14T20:26:31.918Z,39.93
2022-08-14T20:29:04.973Z,39.79
2022-08-14T20:31:36.497Z,39.86
2022-08-14T20:34:24.445Z,39.81
2022-08-14T20:37:09.838Z,39.96
2022-08-14T20:39:43.634Z,40.37
2022-08-14T20:42:30.949Z,40.89
2022-08-14T20:45:17.387Z,40.98
2022-08-14T20:47:50.566Z,41.34
2022-08-14T20:50:29.093Z,41.11
2022-08-14T20:52:57.240Z,41.01
2022-08-14T20:55:29.228Z,41.16
2022-08-14T20:57:58.966Z,40.98
2022-08-14T21:00:37.475Z,40.86
2022-08-14T21:03:23.928Z,40.89
2022-08-14T21:05:59.420Z,40.95
2022-08-14T21:08:30.197Z,41.12
2022-08-14T21:10:58.303Z,41.09
2022-08-14T21:14:20.190Z,40.87
2022-08-14T21:16:34.486Z,41.11
2022-08-14T21:19:04.785Z,40.97
2022-08-14T21:21:40.462Z,40.33
2022-08-14T21:24:38.670Z,40.42
2022-08-14T21:27:02.060Z,41.32
2022-08-14T21:29:32.336Z,40.60
2022-08-14T21:32:00.150Z,40.73
2022-08-14T21:34:32.270Z,40.87
2022-08-14T21:37:09.114Z,41.09
2022-08-14T21:39:38.251Z,41.01
2022-08-14T21:42:06.780Z,40.68
2022-08-14T21:44:43.509Z,40.54
2022-08-14T21:47:12.569Z,40.62
2022-08-14T21:49:43.053Z,40.81
2022-08-14T21:52:51.862Z,40.82
2022-08-14T21:55:09.415Z,40.78
2022-08-14T21:58:45.943Z,40.76
2022-08-14T22:00:34.793Z,41.05
2022-08-14T22:03:05.433Z,41.48
2022-08-14T22:05:33.441Z,41.05
2022-08-14T22:08:07.413Z,41.27
2022-08-14T22:10:40.092Z,42.48
2022-08-14T22:13:11.539Z,41.35
2022-08-14T22:15:43.836Z,42.24
2022-08-14T22:18:20.106Z,41.37
2022-08-14T22:20:53.806Z,41.91
2022-08-14T22:23:26.095Z,41.84
2022-08-14T22:25:54.652Z,42.72
2022-08-14T22:28:25.288Z,42.47
2022-08-14T22:30:55.180Z,42.51
2022-08-14T22:33:26.270Z,42.64
2022-08-14T22:35:59.320Z,43.14
2022-08-14T22:38:35.536Z,43.20
2022-08-14T22:41:27.541Z,43.70
2022-08-14T22:43:55.055Z,43.60
2022-08-14T22:46:23.627Z,43.64
2022-08-14T22:48:52.410Z,43.93
2022-08-14T22:51:22.682Z,44.34
2022-08-14T22:53:53.998Z,44.28
2022-08-14T22:56:22.378Z,44.53
2022-08-14T22:58:58.283Z,44.85
2022-08-14T23:01:55.230Z,44.97
2022-08-14T23:04:35.349Z,45.15
2022-08-14T23:07:22.891Z,45.54
2022-08-14T23:09:55.889Z,45.64
2022-08-14T23:12:28.216Z,45.79
2022-08-14T23:14:56.722Z,46.04
2022-08-14T23:17:24.876Z,45.88
2022-08-14T23:19:56.258Z,46.14
2022-08-14T23:22:26.354Z,46.57
2022-08-14T23:24:56.775Z,46.64
2022-08-14T23:27:31.572Z,46.81
2022-08-14T23:30:31.737Z,46.93
2022-08-14T23:33:03.133Z,47.22
2022-08-14T23:35:33.004Z,47.22
2022-08-14T23:38:01.792Z,47.55
2022-08-14T23:40:31.590Z,47.81
2022-08-14T23:43:02.953Z,47.95
2022-08-14T23:45:36.822Z,48.31
2022-08-14T23:48:05.078Z,48.26
2022-08-14T23:50:38.831Z,48.51
2022-08-14T23:53:28.332Z,48.95
2022-08-14T23:56:06.100Z,49.43
2022-08-14T23:58:37.005Z,49.53
